Time,TemperatureF,DewpointF,PressureIn,WindDirection,WindDirectionDegrees,WindSpeedMPH,WindSpeedGustMPH,Humidity,HourlyPrecipIn,Conditions,Clouds,dailyrainin,SoftwareType,DateUTC
2013-09-30 00:08:00,76.6,70.3,29.86,ENE,67,7.3,-999.0,81,-99.99,,,0.00,Acu-Link.com,2013-09-30 04:08:00,
2013-09-30 00:23:00,76.1,70.2,29.86,ESE,112,6.8,-999.0,82,-99.99,,,0.00,Acu-Link.com,2013-09-30 04:23:00,
2013-09-30 00:38:00,75.7,70.2,29.86,SE,135,6.8,-999.0,83,-99.99,,,0.00,Acu-Link.com,2013-09-30 04:38:00,
2013-09-30 00:53:00,75.4,70.6,29.86,SSE,157,5.3,-999.0,85,-99.99,,,0.00,Acu-Link.com,2013-09-30 04:53:00,
2013-09-30 01:08:00,75.0,70.5,29.85,ESE,112,8.9,-999.0,86,-99.99,,,0.00,Acu-Link.com,2013-09-30 05:08:00,
2013-09-30 01:24:00,75.0,70.9,29.84,ESE,112,6.3,-999.0,87,-99.99,,,0.00,Acu-Link.com,2013-09-30 05:24:00,
2013-09-30 01:39:00,75.0,70.9,29.85,SE,135,4.2,-999.0,87,-99.99,,,0.00,Acu-Link.com,2013-09-30 05:39:00,
2013-09-30 01:54:00,74.8,70.7,29.85,SSE,157,3.2,-999.0,87,-99.99,,,0.00,Acu-Link.com,2013-09-30 05:54:00,
2013-09-30 02:09:00,74.7,70.9,29.84,ESE,112,5.3,-999.0,88,-99.99,,,0.00,Acu-Link.com,2013-09-30 06:09:00,
2013-09-30 02:24:00,74.3,70.8,29.84,ESE,112,7.3,-999.0,89,-99.99,,,0.00,Acu-Link.com,2013-09-30 06:24:00,
2013-09-30 02:40:00,74.1,71.0,29.84,SSE,157,4.7,-999.0,90,-99.99,,,0.00,Acu-Link.com,2013-09-30 06:40:00,
2013-09-30 02:55:00,73.8,71.0,29.84,ESE,112,4.2,-999.0,91,-99.99,,,0.00,Acu-Link.com,2013-09-30 06:55:00,
2013-09-30 03:10:00,73.4,70.9,29.83,ESE,112,3.2,-999.0,92,-99.99,,,0.00,Acu-Link.com,2013-09-30 07:10:00,
2013-09-30 03:25:00,73.2,71.0,29.83,East,90,3.7,-999.0,93,-99.99,,,0.00,Acu-Link.com,2013-09-30 07:25:00,
2013-09-30 03:40:00,72.9,71.1,29.83,ESE,112,3.2,-999.0,94,-99.99,,,0.00,Acu-Link.com,2013-09-30 07:40:00,
2013-09-30 03:56:00,72.7,70.9,29.83,East,90,2.7,-999.0,94,-99.99,,,0.00,Acu-Link.com,2013-09-30 07:56:00,
2013-09-30 04:11:00,72.7,70.9,29.83,East,90,2.2,-999.0,94,-99.99,,,0.00,Acu-Link.com,2013-09-30 08:11:00,
2013-09-30 04:26:00,72.5,71.0,29.83,SSE,157,2.7,-999.0,95,-99.99,,,0.00,Acu-Link.com,2013-09-30 08:26:00,
2013-09-30 04:42:00,72.3,70.8,29.83,East,90,2.2,-999.0,95,-99.99,,,0.00,Acu-Link.com,2013-09-30 08:42:00,
2013-09-30 04:57:00,72.1,70.9,29.83,East,90,2.7,-999.0,96,-99.99,,,0.00,Acu-Link.com,2013-09-30 08:57:00,
2013-09-30 05:12:00,72.0,71.1,29.83,East,90,2.7,-999.0,97,-99.99,,,0.00,Acu-Link.com,2013-09-30 09:12:00,
2013-09-30 05:28:00,72.0,71.1,29.84,ESE,112,2.2,-999.0,97,-99.99,,,0.00,Acu-Link.com,2013-09-30 09:28:00,
2013-09-30 05:43:00,72.0,70.8,29.84,SE,135,2.7,-999.0,96,-99.99,,,0.00,Acu-Link.com,2013-09-30 09:43:00,
2013-09-30 05:59:00,72.1,70.9,29.84,ESE,112,3.2,-999.0,96,-99.99,,,0.00,Acu-Link.com,2013-09-30 09:59:00,
2013-09-30 06:14:00,72.1,70.9,29.84,East,90,2.7,-999.0,96,-99.99,,,0.00,Acu-Link.com,2013-09-30 10:14:00,
2013-09-30 06:29:00,72.1,70.9,29.84,East,90,1.7,-999.0,96,-99.99,,,0.00,Acu-Link.com,2013-09-30 10:29:00,
2013-09-30 06:44:00,72.0,70.8,29.84,ESE,112,2.7,-999.0,96,-99.99,,,0.00,Acu-Link.com,2013-09-30 10:44:00,
2013-09-30 06:59:00,71.8,70.9,29.84,East,90,1.7,-999.0,97,-99.99,,,0.00,Acu-Link.com,2013-09-30 10:59:00,
2013-09-30 07:15:00,71.8,70.9,29.85,ENE,67,2.7,-999.0,97,-99.99,,,0.00,Acu-Link.com,2013-09-30 11:15:00,
2013-09-30 07:30:00,71.6,70.7,29.85,East,90,3.2,-999.0,97,-99.99,,,0.00,Acu-Link.com,2013-09-30 11:30:00,
2013-09-30 07:45:00,71.1,70.5,29.85,SE,135,2.7,-999.0,98,-99.99,,,0.00,Acu-Link.com,2013-09-30 11:45:00,
2013-09-30 08:00:00,73.6,72.1,29.85,East,90,4.7,-999.0,95,-99.99,,,0.00,Acu-Link.com,2013-09-30 12:00:00,
2013-09-30 08:15:00,75.0,72.2,29.87,SE,135,2.7,-999.0,91,-99.99,,,0.00,Acu-Link.com,2013-09-30 12:15:00,
2013-09-30 08:31:00,75.9,72.4,29.88,ESE,112,3.2,-999.0,89,-99.99,,,0.00,Acu-Link.com,2013-09-30 12:31:00,
2013-09-30 08:46:00,78.3,72.7,29.88,NE,45,4.2,-999.0,83,-99.99,,,0.00,Acu-Link.com,2013-09-30 12:46:00,
2013-09-30 09:01:00,80.1,73.4,29.88,East,90,1.7,-999.0,80,-99.99,,,0.00,Acu-Link.com,2013-09-30 13:01:00,
2013-09-30 09:17:00,78.8,73.2,29.89,ENE,67,4.2,-999.0,83,-99.99,,,0.00,Acu-Link.com,2013-09-30 13:17:00,
2013-09-30 09:32:00,79.9,73.2,29.89,SSE,157,4.7,-999.0,80,-99.99,,,0.00,Acu-Link.com,2013-09-30 13:32:00,
2013-09-30 09:47:00,79.9,73.2,29.89,SSE,157,4.7,-999.0,80,-99.99,,,0.00,Acu-Link.com,2013-09-30 13:47:00,
2013-09-30 10:02:00,81.0,73.5,29.89,SE,135,4.7,-999.0,78,-99.99,,,0.00,Acu-Link.com,2013-09-30 14:02:00,
2013-09-30 10:17:00,80.6,73.1,29.89,ENE,67,5.8,-999.0,78,-99.99,,,0.00,Acu-Link.com,2013-09-30 14:17:00,
2013-09-30 10:33:00,81.1,72.8,29.89,East,90,6.3,-999.0,76,-99.99,,,0.00,Acu-Link.com,2013-09-30 14:33:00,
2013-09-30 10:48:00,83.1,73.5,29.89,ESE,112,5.3,-999.0,73,-99.99,,,0.00,Acu-Link.com,2013-09-30 14:48:00,
2013-09-30 11:03:00,83.8,73.8,29.88,East,90,7.8,-999.0,72,-99.99,,,0.00,Acu-Link.com,2013-09-30 15:03:00,
2013-09-30 11:18:00,84.2,73.3,29.88,ESE,112,6.3,-999.0,70,-99.99,,,0.00,Acu-Link.com,2013-09-30 15:18:00,
2013-09-30 11:34:00,86.0,73.7,29.88,ESE,112,5.8,-999.0,67,-99.99,,,0.00,Acu-Link.com,2013-09-30 15:34:00,
2013-09-30 11:49:00,87.1,72.5,29.87,ESE,112,7.8,-999.0,62,-99.99,,,0.00,Acu-Link.com,2013-09-30 15:49:00,
2013-09-30 12:04:00,88.0,72.8,29.87,South,180,6.3,-999.0,61,-99.99,,,0.00,Acu-Link.com,2013-09-30 16:04:00,
2013-09-30 12:19:00,88.0,71.8,29.87,South,180,3.2,-999.0,59,-99.99,,,0.00,Acu-Link.com,2013-09-30 16:19:00,
2013-09-30 12:34:00,90.0,71.1,29.86,SSE,157,7.8,-999.0,54,-99.99,,,0.00,Acu-Link.com,2013-09-30 16:34:00,
2013-09-30 12:50:00,88.0,69.8,29.86,ESE,112,4.2,-999.0,55,-99.99,,,0.00,Acu-Link.com,2013-09-30 16:50:00,
2013-09-30 13:20:00,88.0,68.7,29.84,ESE,112,4.2,-999.0,53,-99.99,,,0.00,Acu-Link.com,2013-09-30 17:20:00,
2013-09-30 13:35:00,89.2,68.1,29.84,SE,135,5.3,-999.0,50,-99.99,,,0.00,Acu-Link.com,2013-09-30 17:35:00,
2013-09-30 13:50:00,90.0,70.0,29.84,ESE,112,2.7,-999.0,52,-99.99,,,0.00,Acu-Link.com,2013-09-30 17:50:00,
2013-09-30 14:06:00,90.3,67.9,29.84,East,90,5.8,-999.0,48,-99.99,,,0.00,Acu-Link.com,2013-09-30 18:06:00,
2013-09-30 14:36:00,88.5,72.3,29.83,NNE,22,6.3,-999.0,59,-99.99,,,0.00,Acu-Link.com,2013-09-30 18:36:00,
2013-09-30 14:51:00,87.8,73.1,29.83,NW,315,6.3,-999.0,62,-99.99,,,0.00,Acu-Link.com,2013-09-30 18:51:00,
2013-09-30 15:06:00,88.2,73.5,29.82,WNW,292,4.7,-999.0,62,-99.99,,,0.00,Acu-Link.com,2013-09-30 19:06:00,
2013-09-30 15:22:00,88.3,72.1,29.81,NW,315,8.3,-999.0,59,-99.99,,,0.00,Acu-Link.com,2013-09-30 19:22:00,
2013-09-30 15:37:00,87.6,72.0,29.82,NW,315,9.4,-999.0,60,-99.99,,,0.00,Acu-Link.com,2013-09-30 19:37:00,
2013-09-30 15:52:00,88.9,71.1,29.81,WNW,292,5.8,-999.0,56,-99.99,,,0.00,Acu-Link.com,2013-09-30 19:52:00,
2013-09-30 16:07:00,88.9,72.2,29.81,WNW,292,5.3,-999.0,58,-99.99,,,0.00,Acu-Link.com,2013-09-30 20:07:00,
2013-09-30 16:23:00,89.8,73.0,29.82,West,270,5.8,-999.0,58,-99.99,,,0.00,Acu-Link.com,2013-09-30 20:23:00,
2013-09-30 16:38:00,88.5,73.8,29.81,West,270,6.8,-999.0,62,-99.99,,,0.00,Acu-Link.com,2013-09-30 20:38:00,
2013-09-30 16:53:00,87.4,74.6,29.81,WNW,292,5.3,-999.0,66,-99.99,,,0.00,Acu-Link.com,2013-09-30 20:53:00,
2013-09-30 17:08:00,86.4,74.1,29.81,NNW,337,7.3,-999.0,67,-99.99,,,0.00,Acu-Link.com,2013-09-30 21:08:00,
2013-09-30 17:23:00,87.3,74.5,29.81,SW,225,5.3,-999.0,66,-99.99,,,0.00,Acu-Link.com,2013-09-30 21:23:00,
2013-09-30 17:39:00,86.4,74.6,29.81,West,270,4.7,-999.0,68,-99.99,,,0.00,Acu-Link.com,2013-09-30 21:39:00,
2013-09-30 17:54:00,85.3,74.4,29.81,NW,315,4.7,-999.0,70,-99.99,,,0.00,Acu-Link.com,2013-09-30 21:54:00,
2013-09-30 18:09:00,84.7,75.1,29.81,SE,135,3.2,-999.0,73,-99.99,,,0.00,Acu-Link.com,2013-09-30 22:09:00,
2013-09-30 18:24:00,85.3,74.8,29.81,WNW,292,5.3,-999.0,71,-99.99,,,0.00,Acu-Link.com,2013-09-30 22:24:00,
2013-09-30 18:39:00,85.6,74.7,29.82,NNW,337,4.7,-999.0,70,-99.99,,,0.00,Acu-Link.com,2013-09-30 22:39:00,
2013-09-30 18:55:00,84.9,74.8,29.82,North,0,3.7,-999.0,72,-99.99,,,0.00,Acu-Link.com,2013-09-30 22:55:00,
2013-09-30 19:10:00,83.8,75.0,29.83,West,270,5.8,-999.0,75,-99.99,,,0.00,Acu-Link.com,2013-09-30 23:10:00,
2013-09-30 19:25:00,82.9,74.9,29.83,WNW,292,4.2,-999.0,77,-99.99,,,0.00,Acu-Link.com,2013-09-30 23:25:00,
2013-09-30 19:40:00,82.6,74.6,29.83,WNW,292,3.7,-999.0,77,-99.99,,,0.00,Acu-Link.com,2013-09-30 23:40:00,
2013-09-30 19:56:00,82.4,74.8,29.84,NW,315,4.7,-999.0,78,-99.99,,,0.00,Acu-Link.com,2013-09-30 23:56:00,
2013-09-30 20:11:00,82.4,74.8,29.84,North,0,4.7,-999.0,78,-99.99,,,0.00,Acu-Link.com,2013-10-01 00:11:00,
2013-09-30 20:26:00,82.4,74.8,29.84,WNW,292,4.2,-999.0,78,-99.99,,,0.00,Acu-Link.com,2013-10-01 00:26:00,
2013-09-30 20:41:00,82.4,74.4,29.85,NNE,22,7.8,-999.0,77,-99.99,,,0.00,Acu-Link.com,2013-10-01 00:41:00,
2013-09-30 20:56:00,82.0,74.4,29.86,West,270,6.3,-999.0,78,-99.99,,,0.00,Acu-Link.com,2013-10-01 00:56:00,
2013-09-30 21:12:00,81.5,75.1,29.86,East,90,7.8,-999.0,81,-99.99,,,0.00,Acu-Link.com,2013-10-01 01:12:00,
2013-09-30 21:27:00,81.3,75.3,29.86,North,0,6.8,-999.0,82,-99.99,,,0.00,Acu-Link.com,2013-10-01 01:27:00,
2013-09-30 21:42:00,81.0,75.7,29.87,NNE,22,8.9,-999.0,84,-99.99,,,0.00,Acu-Link.com,2013-10-01 01:42:00,
2013-09-30 21:57:00,80.8,75.9,29.87,NE,45,7.3,-999.0,85,-99.99,,,0.00,Acu-Link.com,2013-10-01 01:57:00,
2013-09-30 22:12:00,80.8,76.6,29.88,NE,45,7.3,-999.0,87,-99.99,,,0.00,Acu-Link.com,2013-10-01 02:12:00,
2013-09-30 22:28:00,80.8,75.9,29.88,East,90,6.3,-999.0,85,-99.99,,,0.00,Acu-Link.com,2013-10-01 02:28:00,
2013-09-30 22:43:00,80.1,74.5,29.88,NE,45,6.3,-999.0,83,-99.99,,,0.00,Acu-Link.com,2013-10-01 02:43:00,
2013-09-30 22:58:00,79.9,72.8,29.88,ENE,67,7.3,-999.0,79,-99.99,,,0.00,Acu-Link.com,2013-10-01 02:58:00,
2013-09-30 23:13:00,79.7,72.2,29.88,ENE,67,10.4,-999.0,78,-99.99,,,0.00,Acu-Link.com,2013-10-01 03:13:00,
2013-09-30 23:29:00,79.2,72.1,29.88,ENE,67,5.8,-999.0,79,-99.99,,,0.00,Acu-Link.com,2013-10-01 03:29:00,
2013-09-30 23:44:00,78.8,72.1,29.88,ENE,67,9.9,-999.0,80,-99.99,,,0.00,Acu-Link.com,2013-10-01 03:44:00,
2013-09-30 23:59:00,78.6,71.9,29.88,East,90,6.3,-999.0,80,-99.99,,,0.00,Acu-Link.com,2013-10-01 03:59:00,